Paris, France

2:53 PM CET on February 07, 2016 (GMT +0100)
Orly | | Change Station
CLOSE
Current Station
Airport
Location: Paris Orly,
Elevation: 289 ft
Nearby Weather Stations

Elev 289 ft 48.72 °N, 2.38 °E | Updated 23 minutes ago

Scattered Clouds
Scattered Clouds
50 °F
Feels Like 50 °F
N
14
Wind Variable Wind from WSW

Today
High -- | Low -- °F
--% Chance of Precip.
Yesterday
High -- | Low -- °F
Precip. -- in
Pressure 29.68 in
Visibility 6.2 miles
Clouds Scattered Clouds 3800 ft
Dew Point 36 °F
Humidity 58%
Rainfall 0.00 in
Snow Depth Not available.
8:13 AM 5:57 PM
Waning Crescent, 1% visible
METAR LFPO 071330Z 24012KT 9999 SCT038 10/02 Q1005 TEMPO 24018G30KT SCT030TCU
Pressure 29.68 in
Visibility 6.2 miles
Clouds Scattered Clouds 3800 ft
Dew Point 36 °F
Humidity 58%
Rainfall 0.00 in
Snow Depth Not available.
8:13 AM 5:57 PM
Waning Crescent, 1% visible
METAR LFPO 071330Z 24012KT 9999 SCT038 10/02 Q1005 TEMPO 24018G30KT SCT030TCU

10-Day Weather Forecast

Almanac

Astronomy

Feb. 07, 2016 Rise Set
Actual Time
Civil Twilight
Nautical Twilight
Astronomical Twilight
Moon
Length of Visible Light
Length of Day
Tomorrow will be .
, % of the Moon is Illuminated

Today's Extremes

Country Highs Country Lows

Community

WunderPhotos

Upload Photos

1,891,190 photos uploaded!

WunderBlog® & News

Nearby

Air Quality

  Air Quality AQ Index Pollutant
Not available.

Snow Depth

Station Depth Elevation

Earthquake Activity

City Distance Mag. Time & Date
Minimum magnitude displayed is 2.5.

Coastal Water Temperatures

Place Temperature

Stations

Nearby Weather Stations

Station Location Temp. Windchill Dew Point Humidity Wind Precip. Elev Updated Type